createdAt,value
2022-11-26T00:00:40.871Z,102951.44
2022-11-26T00:03:30.101Z,102953.19
2022-11-26T00:06:17.443Z,102954.94
2022-11-26T00:09:04.286Z,102947.91
2022-11-26T00:11:51.001Z,102954.97
2022-11-26T00:14:38.777Z,102949.69
2022-11-26T00:17:25.744Z,102962.84
2022-11-26T00:20:12.827Z,102923.06
2022-11-26T00:23:19.498Z,102954.03
2022-11-26T00:26:10.367Z,102966.38
2022-11-26T00:28:58.181Z,102964.66
2022-11-26T00:31:44.944Z,102965.50
2022-11-26T00:34:31.694Z,102957.56
2022-11-26T00:37:18.497Z,102929.34
2022-11-26T00:40:05.283Z,102962.94
2022-11-26T00:42:52.171Z,102971.72
2022-11-26T00:45:44.276Z,102967.34
2022-11-26T00:48:31.267Z,102968.22
2022-11-26T00:51:17.991Z,102969.97
2022-11-26T00:54:05.860Z,102939.06
2022-11-26T00:56:37.880Z,102969.97
2022-11-26T00:59:25.986Z,102913.50
2022-11-26T01:02:12.729Z,102972.66
2022-11-26T01:04:59.744Z,102962.06
2022-11-26T01:07:46.510Z,102959.47
2022-11-26T01:10:39.760Z,102947.16
2022-11-26T01:13:26.755Z,102954.16
2022-11-26T01:16:15.380Z,102965.66
2022-11-26T01:19:02.274Z,102966.53
2022-11-26T01:21:51.436Z,102957.78
2022-11-26T01:24:41.055Z,102942.72
2022-11-26T01:27:31.891Z,102957.72
2022-11-26T01:30:18.699Z,102974.47
2022-11-26T01:33:05.731Z,102971.84
2022-11-26T01:35:52.584Z,102955.09
2022-11-26T01:38:39.303Z,102978.00
2022-11-26T01:41:32.904Z,102978.91
2022-11-26T01:44:20.721Z,102978.00
2022-11-26T01:47:08.952Z,102978.03
2022-11-26T01:49:55.654Z,102979.78
2022-11-26T01:52:46.021Z,102982.41
2022-11-26T01:55:37.510Z,102916.19
2022-11-26T01:58:27.462Z,102984.22
2022-11-26T02:01:14.353Z,102903.75
2022-11-26T02:04:09.919Z,102914.41
2022-11-26T02:06:56.669Z,102983.25
2022-11-26T02:09:46.033Z,102993.00
2022-11-26T02:12:33.579Z,102931.22
2022-11-26T02:15:20.463Z,102991.25
2022-11-26T02:18:21.801Z,102991.25
2022-11-26T02:21:21.055Z,102999.16
2022-11-26T02:24:36.775Z,102994.78
2022-11-26T02:27:53.147Z,103002.69
2022-11-26T02:30:39.967Z,103005.31
2022-11-26T02:33:36.215Z,103006.16
2022-11-26T02:36:30.568Z,102992.09
2022-11-26T02:39:17.259Z,103005.31
2022-11-26T02:42:07.891Z,103005.31
2022-11-26T02:45:03.707Z,103005.31
2022-11-26T02:47:53.626Z,102994.81
2022-11-26T02:50:45.397Z,102990.41
2022-11-26T02:53:35.513Z,102993.91
2022-11-26T02:56:29.013Z,102970.13
2022-11-26T02:59:17.367Z,102994.84
2022-11-26T03:02:19.736Z,102986.88
2022-11-26T03:05:11.451Z,102895.03
2022-11-26T03:07:59.155Z,102999.22
2022-11-26T03:10:50.384Z,102990.44
2022-11-26T03:13:37.418Z,103000.09
2022-11-26T03:16:24.704Z,103000.97
2022-11-26T03:19:11.590Z,103004.44
2022-11-26T03:21:58.318Z,103005.38
2022-11-26T03:24:45.054Z,102999.13
2022-11-26T03:27:31.862Z,103008.00
2022-11-26T03:30:18.588Z,102917.09
2022-11-26T03:33:05.292Z,102999.19
2022-11-26T03:35:52.018Z,102985.88
2022-11-26T03:38:38.771Z,103008.81
2022-11-26T03:41:25.664Z,103021.16
2022-11-26T03:44:12.530Z,102964.59
2022-11-26T03:46:59.615Z,103021.97
2022-11-26T03:49:46.461Z,102999.91
2022-11-26T03:52:33.217Z,103032.53
2022-11-26T03:55:19.934Z,103025.53
2022-11-26T03:58:06.618Z,103020.25
2022-11-26T04:00:53.397Z,103028.16
2022-11-26T04:03:40.224Z,103033.41
2022-11-26T04:06:27.822Z,102966.31
2022-11-26T04:09:14.632Z,103035.16
2022-11-26T04:12:01.775Z,103042.22
2022-11-26T04:14:48.601Z,103036.06
2022-11-26T04:17:35.335Z,103035.16
2022-11-26T04:20:22.060Z,103036.06
2022-11-26T04:23:08.887Z,103029.06
2022-11-26T04:25:55.802Z,103033.41
2022-11-26T04:28:42.487Z,103053.59
2022-11-26T04:31:29.339Z,103037.75
2022-11-26T04:34:16.070Z,103041.31
2022-11-26T04:37:02.782Z,103027.19
2022-11-26T04:39:49.523Z,103032.50
2022-11-26T04:42:36.222Z,103039.53
2022-11-26T04:45:23.147Z,103045.66
2022-11-26T04:48:09.868Z,103042.16
2022-11-26T04:50:56.569Z,103047.44
2022-11-26T04:53:43.597Z,103049.19
2022-11-26T04:56:30.421Z,103037.78
2022-11-26T04:59:17.135Z,103029.88
2022-11-26T05:02:03.897Z,103034.28
2022-11-26T05:04:50.750Z,103038.66
2022-11-26T05:07:37.820Z,103036.03
2022-11-26T05:10:26.299Z,103035.13
2022-11-26T05:13:13.068Z,103033.34
2022-11-26T05:15:59.772Z,103043.91
2022-11-26T05:18:46.552Z,103044.81
2022-11-26T05:21:33.295Z,103036.81
2022-11-26T05:24:20.047Z,103048.28
2022-11-26T05:27:06.765Z,103049.16
2022-11-26T05:29:53.482Z,103032.34
2022-11-26T05:32:40.233Z,103050.03
2022-11-26T05:35:27.322Z,103052.66
2022-11-26T05:38:14.096Z,103013.81
2022-11-26T05:41:00.832Z,103053.53
2022-11-26T05:43:47.691Z,103055.31
2022-11-26T05:46:36.301Z,103047.41
2022-11-26T05:49:24.279Z,103054.38
2022-11-26T05:52:11.054Z,103048.22
2022-11-26T05:54:57.831Z,103055.25
2022-11-26T05:57:44.607Z,103057.00
2022-11-26T06:00:32.150Z,103050.84
2022-11-26T06:03:20.558Z,103045.56
2022-11-26T06:06:07.611Z,103048.19
2022-11-26T06:08:54.823Z,103048.13
2022-11-26T06:11:41.573Z,103057.84
2022-11-26T06:14:28.307Z,103067.50
2022-11-26T06:17:15.012Z,103003.97
2022-11-26T06:20:02.254Z,103003.94
2022-11-26T06:22:48.970Z,103064.84
2022-11-26T06:25:35.716Z,103059.56
2022-11-26T06:28:22.544Z,103051.59
2022-11-26T06:31:09.685Z,103062.13
2022-11-26T06:33:57.406Z,103074.47
2022-11-26T06:36:44.499Z,103059.41
2022-11-26T06:39:31.273Z,103086.78
2022-11-26T06:42:18.031Z,103078.88
2022-11-26T06:45:04.918Z,103080.59
2022-11-26T06:47:51.624Z,103082.34
2022-11-26T06:50:40.911Z,103078.84
2022-11-26T06:53:27.598Z,103080.56
2022-11-26T09:50:55.506Z,103151.47
2022-11-26T09:53:30.598Z,103153.22
2022-11-26T09:56:00.238Z,103156.75
2022-11-26T09:59:11.822Z,103158.50
2022-11-26T10:02:00.989Z,103158.53
2022-11-26T10:04:53.165Z,103154.16
2022-11-26T10:08:24.393Z,103129.44
2022-11-26T10:11:19.895Z,103147.13
2022-11-26T10:14:17.008Z,103159.44
2022-11-26T10:17:17.930Z,103159.47
2022-11-26T10:20:10.326Z,103135.69
2022-11-26T10:23:13.196Z,103158.59
2022-11-26T10:26:08.365Z,103154.22
2022-11-26T10:29:03.434Z,103157.75
2022-11-26T10:31:48.464Z,103147.25
2022-11-26T10:34:44.165Z,103153.38
2022-11-26T10:37:31.124Z,103148.97
2022-11-26T10:40:36.573Z,103133.97
2022-11-26T10:43:26.245Z,103150.75
2022-11-26T10:46:18.104Z,103154.28
2022-11-26T10:49:04.870Z,103153.41
2022-11-26T10:51:51.638Z,103149.03
2022-11-26T10:54:50.147Z,103146.41
2022-11-26T10:57:39.603Z,103142.06
2022-11-26T11:00:27.072Z,103152.56
2022-11-26T11:03:14.255Z,103050.00
2022-11-26T11:06:03.386Z,103146.41
2022-11-26T11:08:52.275Z,103130.47
2022-11-26T11:11:42.655Z,103127.88
2022-11-26T11:14:48.145Z,103082.75
2022-11-26T11:17:51.768Z,103071.19
2022-11-26T11:20:38.438Z,103161.34
2022-11-26T11:23:52.298Z,103159.59
2022-11-26T11:26:39.634Z,103149.94
2022-11-26T11:29:45.512Z,103106.53
2022-11-26T11:32:53.771Z,103159.59
2022-11-26T11:35:40.466Z,103158.69
2022-11-26T11:38:42.342Z,103156.06
2022-11-26T11:41:35.860Z,103164.84
2022-11-26T11:44:39.157Z,103154.34
2022-11-26T11:48:11.153Z,103157.84
2022-11-26T11:51:22.264Z,103157.84
2022-11-26T11:54:39.278Z,103148.16
2022-11-26T11:58:08.242Z,103150.81
2022-11-26T12:01:09.903Z,103150.81
2022-11-26T12:04:09.184Z,103142.91
2022-11-26T12:07:11.057Z,103147.28
2022-11-26T12:10:06.687Z,103149.97
2022-11-26T12:13:09.607Z,103145.53
2022-11-26T12:16:00.424Z,103142.06
2022-11-26T12:18:50.519Z,103149.94
2022-11-26T12:21:54.511Z,103158.69
2022-11-26T12:24:49.018Z,103149.03
2022-11-26T12:27:47.693Z,103153.44
2022-11-26T12:30:38.804Z,103151.69
2022-11-26T12:33:33.419Z,103150.81
2022-11-26T12:36:29.836Z,103165.72
2022-11-26T12:39:20.580Z,103161.34
2022-11-26T12:42:19.731Z,103156.94
2022-11-26T12:45:16.122Z,103165.72
2022-11-26T12:48:15.323Z,103160.47
2022-11-26T12:51:08.125Z,103151.69
2022-11-26T12:54:05.033Z,103151.69
2022-11-26T12:56:55.181Z,103143.69
2022-11-26T13:00:04.150Z,103155.22
2022-11-26T13:02:56.288Z,103134.94
2022-11-26T13:06:27.503Z,103119.06
2022-11-26T13:09:27.854Z,103141.19
2022-11-26T13:12:29.713Z,103099.59
2022-11-26T13:15:34.104Z,103126.16
2022-11-26T13:18:22.515Z,103055.44
2022-11-26T13:21:32.082Z,103118.31
2022-11-26T13:24:38.082Z,103124.50
2022-11-26T13:27:23.910Z,103131.53
2022-11-26T13:30:16.803Z,103094.44
2022-11-26T13:33:12.689Z,103125.38
2022-11-26T13:36:17.464Z,103128.88
2022-11-26T13:39:19.135Z,103131.53
2022-11-26T13:42:31.741Z,103128.00
2022-11-26T13:45:48.830Z,103131.53
2022-11-26T13:48:54.307Z,103116.59
2022-11-26T13:51:46.895Z,103105.97
2022-11-26T13:54:43.004Z,103134.16
2022-11-26T13:57:17.178Z,103138.53
2022-11-26T14:00:08.840Z,103145.53
2022-11-26T14:02:58.095Z,103135.88
2022-11-26T14:06:10.805Z,103135.88
2022-11-26T14:09:03.507Z,103133.25
2022-11-26T14:12:05.222Z,103129.72
2022-11-26T14:14:53.248Z,103140.28
2022-11-26T14:17:45.087Z,103136.78
2022-11-26T14:20:31.839Z,103134.16
2022-11-26T14:23:57.101Z,103138.53
2022-11-26T14:26:43.750Z,103138.53
2022-11-26T14:29:32.238Z,103134.13
2022-11-26T14:32:19.012Z,103001.44
2022-11-26T14:35:11.339Z,103138.53
2022-11-26T14:38:11.171Z,103135.88
2022-11-26T14:40:58.655Z,103144.69
2022-11-26T14:43:45.604Z,103135.00
2022-11-26T14:46:37.136Z,103139.41
2022-11-26T14:49:52.916Z,103137.63
2022-11-26T14:53:01.167Z,103099.66
2022-11-26T14:55:50.475Z,103140.25
2022-11-26T14:59:14.643Z,103140.22
2022-11-26T15:02:05.043Z,103136.75
2022-11-26T15:04:56.309Z,103114.66
2022-11-26T15:07:47.069Z,103135.81
2022-11-26T15:10:33.765Z,103131.50
2022-11-26T15:13:55.187Z,103119.13
2022-11-26T15:16:58.723Z,103132.34
2022-11-26T15:19:47.041Z,103115.63
2022-11-26T15:23:00.442Z,103129.69
2022-11-26T15:25:49.854Z,103127.97
2022-11-26T15:28:39.289Z,103131.47
2022-11-26T15:31:27.838Z,103110.22
2022-11-26T15:34:14.606Z,103111.06
2022-11-26T15:37:01.427Z,103131.47
2022-11-26T15:39:51.079Z,103130.56
2022-11-26T15:42:50.238Z,103115.63
2022-11-26T15:45:40.621Z,103120.94
2022-11-26T15:49:07.699Z,103122.66
2022-11-26T15:52:21.790Z,103121.78
2022-11-26T15:55:29.615Z,103124.44
2022-11-26T15:58:51.994Z,103123.59
2022-11-26T16:01:59.603Z,103118.31
2022-11-26T16:05:11.895Z,103111.28
2022-11-26T16:08:42.491Z,103109.47
2022-11-26T16:11:50.711Z,103109.53
2022-11-26T16:14:59.835Z,103106.91
2022-11-26T16:18:08.380Z,103106.91
2022-11-26T16:21:33.716Z,103106.91
2022-11-26T16:24:46.559Z,103107.81
2022-11-26T16:27:54.143Z,103085.66
2022-11-26T16:31:03.497Z,103106.94
2022-11-26T16:34:10.196Z,103113.09
2022-11-26T16:37:36.267Z,103104.22
2022-11-26T16:40:43.859Z,103106.94
2022-11-26T16:43:50.556Z,103106.06
2022-11-26T16:46:58.083Z,103038.91
2022-11-26T16:50:04.765Z,103106.97
2022-11-26T16:53:12.627Z,103083.13
2022-11-26T16:56:19.783Z,103101.72
2022-11-26T16:59:39.908Z,103108.75
2022-11-26T17:02:46.968Z,103105.28
2022-11-26T17:05:53.810Z,103107.03
2022-11-26T17:09:01.329Z,103102.66
2022-11-26T17:12:08.132Z,103090.31
2022-11-26T17:15:14.886Z,103100.91
2022-11-26T17:18:27.492Z,103103.56
2022-11-26T17:21:34.911Z,103093.03
2022-11-26T17:24:41.586Z,103078.94
2022-11-26T17:27:48.346Z,103091.28
2022-11-26T17:30:55.096Z,103075.31
2022-11-26T17:33:42.141Z,103103.59
2022-11-26T17:36:41.241Z,103099.19
2022-11-26T17:39:30.972Z,103099.22
2022-11-26T17:42:17.735Z,103090.44
2022-11-26T17:45:04.587Z,103083.44
2022-11-26T17:47:51.343Z,103079.91
2022-11-26T17:50:46.619Z,103086.97
2022-11-26T17:53:33.346Z,103087.81
2022-11-26T17:56:20.074Z,103100.16
2022-11-26T17:59:07.499Z,103080.75
2022-11-26T18:01:54.258Z,103101.06
2022-11-26T18:04:41.075Z,103097.53
2022-11-26T18:07:35.583Z,103009.16
2022-11-26T18:10:22.667Z,103094.94
2022-11-26T18:13:12.966Z,103090.53
2022-11-26T18:15:59.664Z,103086.03
2022-11-26T18:18:46.820Z,103047.19
2022-11-26T18:21:33.523Z,103101.06
2022-11-26T18:24:20.250Z,103104.56
2022-11-26T18:27:07.030Z,103108.97
2022-11-26T18:29:53.851Z,103099.25
2022-11-26T18:32:40.654Z,103111.53
2022-11-26T18:35:27.969Z,103102.75
2022-11-26T18:38:14.686Z,103102.78
2022-11-26T18:41:01.498Z,103089.50
2022-11-26T18:43:48.259Z,103074.47
2022-11-26T18:46:37.533Z,103112.41
2022-11-26T18:49:24.419Z,103017.03
2022-11-26T18:52:11.235Z,103117.69
2022-11-26T18:54:57.926Z,103121.22
2022-11-26T18:57:44.640Z,103118.59
2022-11-26T19:00:31.855Z,103114.22
2022-11-26T19:03:18.574Z,103116.88
2022-11-26T19:06:05.406Z,103122.06
2022-11-26T19:08:52.198Z,103119.50
2022-11-26T19:11:58.884Z,103122.16
2022-11-26T19:14:45.632Z,103119.53
2022-11-26T19:17:52.399Z,103116.03
2022-11-26T19:21:10.228Z,103114.31
2022-11-26T19:24:19.572Z,103102.03
2022-11-26T19:27:26.258Z,103104.63
2022-11-26T19:30:35.536Z,103114.38
2022-11-26T19:33:22.331Z,103117.00
2022-11-26T19:36:09.039Z,103118.75
2022-11-26T19:38:56.736Z,103111.72
2022-11-26T19:41:44.116Z,103120.50
2022-11-26T19:44:30.851Z,103128.44
2022-11-26T19:47:17.624Z,103126.69
2022-11-26T19:50:24.823Z,103127.59
2022-11-26T19:53:31.499Z,103116.16
2022-11-26T19:56:34.647Z,103118.81
2022-11-26T19:59:21.502Z,103124.97
2022-11-26T20:02:08.340Z,103120.53
2022-11-26T20:04:55.147Z,103112.59
2022-11-26T20:08:01.880Z,103117.06
2022-11-26T20:11:08.566Z,103121.44
2022-11-26T20:13:56.478Z,103115.28
2022-11-26T20:17:05.544Z,103110.91
2022-11-26T20:20:12.265Z,103112.66
2022-11-26T20:23:18.952Z,103107.41
2022-11-26T20:26:43.382Z,103105.63
2022-11-26T20:29:50.131Z,103113.53
2022-11-26T20:32:58.019Z,103111.81
2022-11-26T20:36:05.731Z,103102.97
2022-11-26T20:39:14.219Z,103108.28
2022-11-26T20:42:20.987Z,103106.53
2022-11-26T20:45:07.838Z,103109.19
2022-11-26T20:48:16.128Z,103064.91
2022-11-26T20:51:28.413Z,103072.91
2022-11-26T20:54:35.469Z,103104.75
2022-11-26T20:57:42.171Z,103119.72
2022-11-26T21:00:48.902Z,103114.44
2022-11-26T21:03:55.578Z,103117.94
2022-11-26T21:06:46.156Z,103052.56
2022-11-26T21:09:34.174Z,103117.09
2022-11-26T21:12:20.925Z,103107.41
2022-11-26T21:15:07.674Z,103104.78
2022-11-26T21:17:54.471Z,103102.16
2022-11-26T21:20:41.398Z,103110.97
2022-11-26T21:23:29.305Z,103103.97
2022-11-26T21:26:16.024Z,103109.25
2022-11-26T21:29:02.730Z,103098.66
2022-11-26T21:31:51.232Z,103096.94
2022-11-26T21:34:37.932Z,103097.88
2022-11-26T21:37:24.655Z,103105.75
2022-11-26T21:40:11.382Z,103089.09
2022-11-26T21:42:58.113Z,103084.72
2022-11-26T21:45:45.041Z,103086.47
2022-11-26T21:48:31.844Z,103094.38
2022-11-26T21:51:19.165Z,103035.13
2022-11-26T21:54:06.952Z,103053.69
2022-11-26T21:56:53.739Z,103097.00
2022-11-26T21:59:40.902Z,103097.06
2022-11-26T22:02:30.068Z,103096.16
2022-11-26T22:05:16.819Z,103094.44
2022-11-26T22:08:03.560Z,103091.72
2022-11-26T22:10:50.313Z,103091.78
2022-11-26T22:13:37.046Z,103096.22
2022-11-26T22:16:24.834Z,103090.94
2022-11-26T22:19:12.929Z,103087.44
2022-11-26T22:22:01.878Z,103093.59
2022-11-26T22:24:48.586Z,103094.50
2022-11-26T22:27:35.350Z,103090.94
2022-11-26T22:30:22.085Z,103089.25
2022-11-26T22:33:08.819Z,103090.97
2022-11-26T22:35:56.056Z,103088.34
2022-11-26T22:38:42.786Z,103089.25
2022-11-26T22:41:31.682Z,103085.72
2022-11-26T22:44:19.262Z,103091.00
2022-11-26T22:47:06.327Z,103089.25
2022-11-26T22:49:53.060Z,103089.25
2022-11-26T22:52:40.211Z,103100.69
2022-11-26T22:55:27.431Z,103104.22
2022-11-26T22:58:14.123Z,103096.28
2022-11-26T23:01:13.909Z,103100.72
2022-11-26T23:04:00.719Z,103095.41
2022-11-26T23:06:49.326Z,103097.22
2022-11-26T23:09:36.086Z,103093.72
2022-11-26T23:12:22.793Z,103092.81
2022-11-26T23:15:09.525Z,103087.53
2022-11-26T23:17:56.231Z,103101.63
2022-11-26T23:20:43.118Z,103091.97
2022-11-26T23:23:30.514Z,103100.75
2022-11-26T23:26:20.393Z,103094.63
2022-11-26T23:29:10.098Z,103089.31
2022-11-26T23:31:59.939Z,103089.34
2022-11-26T23:34:46.713Z,103091.09
2022-11-26T23:37:33.559Z,103097.25
2022-11-26T23:40:20.304Z,103094.63
2022-11-26T23:43:08.699Z,103094.59
2022-11-26T23:45:55.754Z,103100.78
2022-11-26T23:48:42.510Z,103035.44
2022-11-26T23:51:32.289Z,103100.81
2022-11-26T23:54:19.303Z,103082.25
2022-11-26T23:56:46.322Z,103099.06
2022-11-26T23:59:13.059Z,103099.94
